Timeline UpdatesTrip UpdatesNews PostsPvt PostsTravel TipsAdmin PostsConv PostsFollowed PostsChat RequestsBlog PostsPNR Posts

Disclaimer
Search
 
 
Sun Sep 21, 2014 23:41:42 ISTHomeTrainsΣChainsAtlasPNRForumGalleryNewsFAQTripsMembersLoginFeedback
No Recent News for this Train
Other Trains in the News **new
Latest...
Discontinued from 1/9/14 #1193229
Thu Aug 21, 2014 (09:08PM)
⇐ Return Journey: Train# 13040

13039/Howrah-Delhi Janta Express (UnReserved)

TRAIN IS CANCELLED
Change Departure Station:
Change Arrival Station:
Post a Train Travel TipPost a Train Travel Tip **new
Post a Comment/Question/Picture/VideoPost a Comment/Question/Picture/Video
Inaugural Run
Tue Oct 01, 1946
Pantry/Catering
✕ NO Pantry Car
✕ NO Catering
RSA - Rake Sharing
Rake/Coach Composition
2 SLR, 5 General Class, and 5-7 HCPV proceeds to Delhi from Bakhtiyarpur.; 2 Sleeper class coaches and general coaches are attached at Bakhtiyarpur to 53232 Danapur-Tilaiya Passenger to run combined upto Rajgir (13039 - Slip); [Loco-SLR-HCPV-HCPV-HCPV-HCPV-HCPV-(HCPV-HCPV)-General-General]-[General-General-General-General-General-SLR-Sleeper-Sleeper]
Loco
Zahaib Entry# 624182 Loco: HWH WAP4
Train will Run till Aug 31 (subject to further announcements)
News    PNR    Forum    Time-Table    Availability    Fare Chart    Map    Arr/Dep History    Trips    Gallery    ΣChains    X/O    Timeline    
Travel Time: 4h 1m    7 halts    Distance: 238 km    Avg Speed: 59 km/hr
Type: Mail/Express
Zone: ER/Eastern
Departs @ 20:20
Platform# 8
SMTWTFS
Kolkata Howrah Junction/HWH 
Arrives @ 00:21 +1 night
Platform# 3
SMTWTFS
Chittaranjan/CRJ 

7 halts. 60 intermediate Stations between Kolkata Howrah Junction and Chittaranjan

Show ALL intermediate Stations  

#CodeStation NameX/OArrivesAvgDepartsAvgHaltPFDay#KmSpeedElevZoneAddress
1HWHKolkata Howrah Junction (23)»  -20:20-810.05610mERHowrah 711101, West Bengal
2SRPSerampore (4)  20:41-20:42-1m--119.54711mERdist - hooghly, West Bengal
3CGRChandan Nagar (3)  20:59-21:00-1m--132.72416mERDist -HOOGHLY - 712136, West Bengal
4BDCBandel Junction (7)  21:17-21:22-5m--139.57514mERdist - HOOGHLY, West Bengal
5BWNBarddhaman Junction (8)  22:16-22:21-5m--1106.78134mERDist - Barddhaman, West Bengal
6DGRDurgapur (5)  23:08-23:10-2m--1170.37371mERDurgapur, West Bengal
7RNGRaniGanj (4)  23:30-23:31-1m--1194.65292mERRaniganj, West Bengal
8ASNAsansol Junction (7)  23:52-23:57-5m--1212.763113mERDist - Bardhaman, West Bengal
9CRJChittaranjan (3)•  00:21-00:22-1m32237.866182mERMihijam, Jharkhand
10MDPMadhupur Junction (4)  01:13-01:18-5m--2294.273254mER06432-224478, Jharkhand
11JSMEJasidih Junction (5)  01:42-01:47-5m--2323.380271mERJasidih, Jharkhand
12STLSimultala (2)  02:06-02:07-1m--2348.730247mERSimultala, Bihar
13JAJJhajha (4)  02:45-02:50-5m--2367.462143mECRJhajha, Bihar
14GHRGidhaur (2)  03:01-03:02-1m--2378.867106mECRState Highway 18, Bihar
15JMUJamui (3)  03:15-03:16-1m--2393.49481mECRState Highway 72, Bihar
16BFMBhalui (2)  03:25-03:26-1m--2407.55463mECRState Highway 18, Bihar
17MNPMananpur (2)  03:33-03:34-1m--2413.81757mECRState Highway 18, Bihar
18BSQPBansipur (2)  03:43-03:44-1m--2416.32453mECRKiul, Bihar
19KIULKiul Junction (5)  03:55-03:57-2m--2420.71053mECRDist. Lakhisarai, Bihar
20LKRLuckeesarai Junction (2)  04:05-04:06-1m--2422.04852mECRLakhisarai, Bihar
21MKBMankatha  04:13-04:14-1m--2427.63147mECRNational Highway 80, Bihar
22DMRXDumri Halt (1)  04:24-04:25-1m12432.8849mECRNational Highway 80, Bihar
23BRYABarhiya (3)  04:57-04:58-1m--2437.15647mECRBarahiya, Bihar
24RDUMRampur Dumra (3)  05:04-05:05-1m--2442.73346mECRNational Highway 80, Bihar
25HTZHathidah Junction (2)  05:12-05:13-1m22446.54550mECRMusahari, Bihar
26ANAHAunta Halt  05:19-05:20-1m--2451.01444mECRPanchmahla, Bihar
27MKAMokama Junction (4)  05:36-05:38-2m--2454.94948mECRPatna, Bihar
28MORMor (2)  05:47-05:48-1m--2462.23246mECRMor, Bihar
29KNHPKanhaipur (2)  05:54-05:55-1m--2465.43447mECRMor, Bihar
30MMKBMemrakhabad (2)  05:59-06:00-1m--2467.73249mECRMor, Bihar
31PHKPunarakh (2)  06:05-06:06-1m--2470.46151mECRPunarakh, Bihar
32BARHBarh (3)  06:16-06:17-1m--2480.66149mECRBarh, Bihar
33ATLAthmal Gola (2)  06:26-06:27-1m--2489.74552mECRPatna, Bihar
34BKPBakhtiyarpur Junction (5)06:39-06:44-5m--2498.75351mECRPatna, Bihar
35TKBGTeka Bigha Halt  06:49-06:50-1m--2503.13251mECRTeka Bigha, Bihar
36SMBHSalim Pur Bihar  06:54-06:55-1m--2505.33654mECRSalim Pur, Bihar
37KWOKarauta (2)  06:59-07:00-1m--2507.75052mECRKarauta, Bihar
38KOOKhusropur (2)  07:07-07:08-1m--2513.55652mECRPatna, Bihar
39FUTFatwa (6)  07:17-07:18-1m--2522.04653mECRPatna, Bihar
40BKGBanka Ghat (2)  07:26-07:27-1m--2528.16156mECRPatna, Bihar
41PNCPatna Saheb (3)  07:33-07:34-1m--2534.22659mECRPatna 800008, Bihar
42GZHGulzarbagh (3)  07:41-07:42-1m--2537.32855mECRPatna, Bihar
43RJPBRajendra Nagar Bihar (4)  07:51-07:53-2m--2541.5755mECRPatna 800001, Bihar
44PNBEPatna Junction (10)  08:15-08:25-10m--2544.13857mECRPatna 800001, Bihar
45DNRDanapur (5)  08:40-08:50-10m--2553.56058mECRKhagaul, Bihar
46NEONeora (2)  08:56-08:57-1m--2559.55361mECRNational Highway 98, Bihar
47SDESadisopur (2)  09:05-09:06-1m--2566.63664mECRSadisopur, Bihar
48BTABihta (2)  09:13-09:14-1m--2570.84062mECRDistt: Patna, Bihar
49KWRKoelwar (2)  09:27-09:28-1m--2579.64365mECRNational Highway 30, Bihar
50KUAKulharia (2)  09:33-09:34-1m--2583.14261mECRChandi Sahar Rd, Bihar
51ARAAra Junction (3)  09:48-09:53-5m--2593.06663mECRarrah( 06182-233411), Bihar
52KRSKarisath (2)  10:02-10:03-1m--2603.07765mECRKarisath, Bihar
53BEABihiya (3)  10:12-10:13-1m--2614.55967mECRBehea, Bihar
54BYNBanahi (2)  10:19-10:20-1m--2620.45967mECRBanahi, Bihar
55RPRRaghunathpur (4)  10:29-10:30-1m--2629.26369mECRRaghunathpur, Bihar
56TWGTwining Ganj  10:38-10:39-1m--2637.63370mECRArrah Buxar Rd, Bihar
57DUREDumraon (3)  10:53-10:54-1m--2645.25270mECRDumraon, Bihar
58BXRBuxar (3)  11:13-11:17-4m--2661.57367mECRBuxar, Bihar
59CSAChausa (2)  11:26-11:27-1m--2672.54368mECRState Highway 14, Bihar
60GMRGahmar (2)  11:40-11:41-1m--2681.76168mECRDistt: Ghazipur, Uttar Pradesh
61BWHBhadaura (2)  11:49-11:50-1m--2689.95269mECRGhazipur, Uttar Pradesh
62DLNDildarnagar Junction (2)  11:59-12:04-5m--2697.78172mECRDildarnagar, Uttar Pradesh
63ZNAZamania (2)  12:14-12:15-1m--2711.210477mECRGhazipur, Uttar Pradesh
64SLDSakaldiha (2)  12:30-12:31-1m--2737.21281mECRState Highway 69, Uttar Pradesh
65MGSMughal Sarai Junction (8)  14:02-14:17-15m62755.52183mECRMughalsarai 232101, Uttar Pradesh
66ARWAhraura Road (4)  14:56-14:57-1m--2769.25185mNCRDist. Mirzapur - 231305, Uttar Pradesh
67KYTKailahat (4)  15:07-15:08-1m--2777.74783mNCRKailahat, Uttar Pradesh
68CARChunar Junction (5)  15:20-15:22-2m32787.24985mNCRChunar Junction, Uttar Pradesh
69MZPMirzapur (3)  16:00-16:05-5m--2818.55588mNCRMirzapur, Uttar Pradesh
70BDLVindhyachal (3)  16:13-16:15-2m32825.84988mNCRMirzapur, Uttar Pradesh
71GAEGaipura (4)  16:30-16:31-1m--2838.13486mNCRGaipura, Uttar Pradesh
72JIAJigna (1)  16:43-16:44-1m12845.06294mNCRNational Highway 76, Uttar Pradesh
73MNFManda Road  16:52-16:54-2m--2853.35493mNCRNH 76, Uttar Pradesh
74UNDUnchdih  17:03-17:04-1m--2861.47094mNCRUnchdih, Uttar Pradesh
75MJAMeja Road (4)  17:11-17:13-2m--2869.56894mNCRDistrict Allahabad, Uttar Pradesh
76KCNKarchana  17:31-17:32-1m--2889.95894mNCRKarchana, Uttar Pradesh
77NYNNaini Junction (4)  17:43-17:44-1m22900.52098mNCRAllahabad, Uttar Pradesh
78ALDAllahabad Junction (10)  18:05-18:15-10m42907.622100mNCRAllahabad 211003, Uttar Pradesh
79SFGSubedarGanj (3)  18:25-18:26-1m--2911.450100mNCRAllahabad, Uttar Pradesh
80BMUBamhrauli  18:32-18:33-1m--2916.456102mNCRAllahabad, Uttar Pradesh
81MREManauri  18:42-18:43-1m--2924.920105mNCRSabderganj-Fatehpur Rd, Uttar Pradesh
82SYWNSaiyid Sarawan  18:57-18:58-1m--2929.445106mNCR212203 ?, Uttar Pradesh
83MNJManoharGanj  19:08-19:09-1m--2936.952104mNCRNational Highway 2, Uttar Pradesh
84BREBharwari  19:18-19:20-2m--2944.727108mNCRBharwari, Uttar Pradesh
85BDNPBidanpur  19:29-19:30-1m--2948.862106mNCRBidanpur, Uttar Pradesh
86SJTShujaatpur  19:36-19:37-1m--2955.066107mNCRNational Highway 2, Uttar Pradesh
87SROSirathu (2)  19:46-19:48-2m12964.862109mNCRSirathu, Uttar Pradesh
88KGAKhaga (3)  20:12-20:14-2m--2989.780114mNCRFatehpur, Uttar Pradesh
89FTPFatehpur (3)  20:40-20:45-5m--21024.474120mNCRFatehpur, Uttar Pradesh
90MWHMalwan (2)  20:58-21:00-2m--21040.583122mNCRFatehpur, Uttar Pradesh
91BKOBindki Road  21:11-21:13-2m--21055.726124mNCRFatehpur, Uttar Pradesh
92CNBKanpur Central (10)  23:00-23:10-10m--21102.070128mNCRKANPUR-208 001, Uttar Pradesh
93RURARura (4)  23:48-23:50-2m--21146.371137mNCRJhinjhak, Uttar Pradesh
94JJKJhinjhak (3)  00:06-00:08-2m331165.370140mNCRAuraiya, Uttar Pradesh
95PHDPhaphund (4)  00:25-00:27-2m--31185.225146mNCRdist. Auraiya, Uttar Pradesh
96ULDAchalda (3)  01:07-01:09-2m--31201.973147mNCRDist. Auraiya(05688-1072), Uttar Pradesh
97BNTBharthana (3)  01:25-01:27-2m--31221.520147mNCRBharthana, Uttar Pradesh
98ETWEtawah (5)  02:27-02:32-5m231241.313154mNCRDistt. Etawah, Uttar Pradesh
99JGRJaswantnagar (2)  03:46-03:48-2m--31257.353154mNCRJaswantnagar, Uttar Pradesh
100SKBShikohabad Junction (4)  04:33-04:38-5m--31296.737166mNCRDistrict Firozabad, Uttar Pradesh
101FZDFirozabad (4)  05:10-05:15-5m331316.633164mNCRFirozabad, Uttar Pradesh
102TDLTundla Junction (5)  05:45-05:55-10m--31333.255167mNCRDistt.Firozabad, Uttar Pradesh
103BRNBarhan Junction  06:11-06:12-1m--31347.872173mNCRJN Point-Tundle/Aligarh/Etah, Uttar Pradesh
104JLSJalesar Road (1)  06:23-06:24-1m131361.075172mNCRMDR 106W, Uttar Pradesh
105HRSHathras Junction (3)  06:40-06:45-5m--31381.160183mNCRMahamaya Nagar(05722-242803), Uttar Pradesh
106SNSSasni (3)  06:54-06:55-1m--31390.055185mNCRSasni, Uttar Pradesh
107MXKMandrak (2)  07:03-07:04-1m--31397.476190mNCRNational Highway 93, Uttar Pradesh
108ALJNAligarh Junction (4)  07:15-07:20-5m--31411.365192mNCRAligarh, Uttar Pradesh
109KLAKulwa (2)  07:31-07:32-1m--31423.268190mNCRAligarh, Uttar Pradesh
110SOMSomna (2)  07:41-07:42-1m--31433.468195mNCRNational Highway 91, Uttar Pradesh
111DARDanwar (2)  07:51-07:52-1m--31443.674198mNCRDanwar, Uttar Pradesh
112KRJKhurja Junction (4)  08:01-08:06-5m--31454.77199mNCRBulandshahr, Uttar Pradesh
113SKQSikandarpur (2)  08:55-08:56-1m--31460.467199mNCRMDR 70W, Uttar Pradesh
114CHLChola (3)  09:04-09:05-1m--31469.359204mNCRTahsil Bulandshahar, Uttar Pradesh
115WAIRWair (2)  09:10-09:11-1m131474.210203mNCRBulandshahr District, Uttar Pradesh
116DKDEDankaur (3)  10:05-10:06-1m--31483.238209mNCRShyam Nagar Mandi, Uttar Pradesh
117GZBGhaziabad Junction (6)  11:00-11:02-2m--31517.448217mNRGhaziabad, Uttar Pradesh
118DSAShahdara Junction (4)  11:19-11:21-2m--31531.116212mNRCircular Rd, Delhi NCT
119DLIOld Delhi Junction (16)  11:45--1331537.3-219mNRNear Chandni Chowk Metro Station, Delhi NCT
Scroll to Top
Scroll to Bottom